createdAt,value
2018-04-19T00:00:18.462Z,0
2018-04-19T00:01:20.228Z,0
2018-04-19T00:02:22.306Z,0
2018-04-19T00:03:24.076Z,0
2018-04-19T00:04:25.780Z,0
2018-04-19T00:05:27.564Z,0
2018-04-19T00:06:29.316Z,0
2018-04-19T00:07:31.030Z,0
2018-04-19T00:08:32.944Z,0
2018-04-19T00:09:34.621Z,0
2018-04-19T00:10:36.274Z,0
2018-04-19T00:11:37.922Z,0
2018-04-19T00:12:39.846Z,0
2018-04-19T00:13:41.719Z,0
2018-04-19T00:14:43.426Z,0
2018-04-19T00:15:45.163Z,0
2018-04-19T00:16:46.836Z,0
2018-04-19T00:17:48.514Z,0
2018-04-19T00:18:50.171Z,0
2018-04-19T00:19:51.919Z,0
2018-04-19T00:20:53.687Z,0
2018-04-19T00:21:55.414Z,0
2018-04-19T00:22:57.358Z,0
2018-04-19T00:23:59.207Z,0
2018-04-19T00:25:00.952Z,0
2018-04-19T00:26:02.521Z,0
2018-04-19T00:27:04.327Z,0
2018-04-19T00:28:06.218Z,0
2018-04-19T00:29:07.985Z,0
2018-04-19T00:30:09.765Z,0
2018-04-19T00:31:11.502Z,0
2018-04-19T00:32:13.221Z,0
2018-04-19T00:33:15.001Z,0
2018-04-19T00:34:16.873Z,0
2018-04-19T00:35:18.483Z,0
2018-04-19T00:36:20.250Z,0
2018-04-19T00:37:21.985Z,0
2018-04-19T00:38:23.642Z,0
2018-04-19T00:39:25.603Z,0
2018-04-19T00:40:27.358Z,0
2018-04-19T00:41:29.077Z,0
2018-04-19T00:42:31.052Z,0
2018-04-19T00:43:32.699Z,0
2018-04-19T00:44:34.421Z,0
2018-04-19T00:45:36.143Z,0
2018-04-19T00:46:37.993Z,0
2018-04-19T00:47:39.726Z,0
2018-04-19T00:48:41.496Z,0
2018-04-19T00:49:43.240Z,0
2018-04-19T00:50:45.025Z,0
2018-04-19T00:51:46.754Z,0
2018-04-19T00:52:48.491Z,0
2018-04-19T00:53:50.258Z,0
2018-04-19T00:54:51.884Z,0
2018-04-19T00:55:53.666Z,0
2018-04-19T00:56:55.340Z,0
2018-04-19T00:57:57.228Z,0
2018-04-19T00:58:58.918Z,0
2018-04-19T01:00:00.690Z,0
2018-04-19T01:01:02.376Z,0
2018-04-19T01:02:04.082Z,0
2018-04-19T01:03:05.800Z,0
2018-04-19T01:04:07.672Z,0
2018-04-19T01:05:09.487Z,0
2018-04-19T01:06:11.198Z,0
2018-04-19T01:07:12.914Z,0
2018-04-19T01:08:14.632Z,0
2018-04-19T01:09:16.348Z,0
2018-04-19T01:10:18.417Z,0
2018-04-19T01:11:19.990Z,0
2018-04-19T01:12:21.960Z,0
2018-04-19T01:13:23.799Z,0
2018-04-19T01:14:25.549Z,0
2018-04-19T01:15:27.405Z,0
2018-04-19T01:16:29.097Z,0
2018-04-19T01:17:30.793Z,0
2018-04-19T01:18:32.524Z,0
2018-04-19T01:19:34.260Z,0
2018-04-19T01:20:35.941Z,0
2018-04-19T01:21:37.650Z,0
2018-04-19T01:22:39.310Z,0
2018-04-19T01:23:40.953Z,0
2018-04-19T01:24:42.668Z,0
2018-04-19T01:25:44.409Z,0
2018-04-19T01:26:46.120Z,0
2018-04-19T01:27:47.836Z,0
2018-04-19T01:28:49.584Z,0
2018-04-19T01:29:51.353Z,0
2018-04-19T01:30:53.144Z,0
2018-04-19T01:31:55.072Z,0
2018-04-19T01:32:56.803Z,0
2018-04-19T01:33:58.640Z,0
2018-04-19T01:35:00.382Z,0
2018-04-19T01:36:02.273Z,0
2018-04-19T01:37:03.965Z,0
2018-04-19T01:38:05.690Z,0
2018-04-19T01:39:07.388Z,0
2018-04-19T01:40:09.130Z,0
2018-04-19T01:41:10.977Z,0
2018-04-19T01:42:12.832Z,0
2018-04-19T01:43:14.598Z,0
2018-04-19T01:44:16.276Z,0
2018-04-19T01:45:17.938Z,0
2018-04-19T01:46:19.805Z,0
2018-04-19T01:47:21.457Z,0
2018-04-19T01:48:23.133Z,0
2018-04-19T01:49:24.879Z,0
2018-04-19T01:50:26.573Z,0
2018-04-19T01:51:28.423Z,0
2018-04-19T01:52:30.298Z,0
2018-04-19T01:53:32.023Z,0
2018-04-19T01:54:33.737Z,0
2018-04-19T01:55:35.458Z,0
2018-04-19T01:56:37.112Z,0
2018-04-19T01:57:38.800Z,0
2018-04-19T01:58:40.487Z,0
2018-04-19T01:59:42.221Z,0
2018-04-19T02:00:43.883Z,0
2018-04-19T02:01:45.504Z,0
2018-04-19T02:02:47.217Z,0
2018-04-19T02:03:48.912Z,0
2018-04-19T02:04:50.666Z,0
2018-04-19T02:05:52.314Z,0
2018-04-19T02:06:54.098Z,0
2018-04-19T02:07:55.795Z,0
2018-04-19T02:08:57.534Z,0
2018-04-19T02:09:59.261Z,0
2018-04-19T02:11:01.197Z,0
2018-04-19T02:12:02.963Z,0
2018-04-19T02:13:04.696Z,0
2018-04-19T02:14:06.560Z,0
2018-04-19T02:15:08.272Z,0
2018-04-19T02:16:10.343Z,0
2018-04-19T02:17:12.231Z,0
2018-04-19T02:18:13.961Z,0
2018-04-19T02:19:15.696Z,0
2018-04-19T02:20:17.310Z,0
2018-04-19T02:21:19.023Z,0
2018-04-19T02:22:20.701Z,0
2018-04-19T02:23:22.637Z,0
2018-04-19T02:24:24.433Z,0
2018-04-19T02:25:26.034Z,0
2018-04-19T02:26:27.712Z,0
2018-04-19T02:27:29.615Z,0
2018-04-19T02:28:31.286Z,0
2018-04-19T02:29:32.931Z,0
2018-04-19T02:30:34.972Z,0
2018-04-19T02:31:36.620Z,0
2018-04-19T02:32:38.305Z,0
2018-04-19T02:33:40.003Z,0
2018-04-19T02:34:41.717Z,0
2018-04-19T02:35:43.420Z,0
2018-04-19T02:36:45.382Z,0
2018-04-19T02:37:47.168Z,0
2018-04-19T02:38:49.176Z,0
2018-04-19T02:39:51.255Z,0
2018-04-19T02:40:52.955Z,0
2018-04-19T02:41:54.643Z,0
2018-04-19T02:42:56.363Z,0
2018-04-19T02:43:58.123Z,0
2018-04-19T02:44:59.862Z,0
2018-04-19T02:46:01.712Z,0
2018-04-19T02:47:03.467Z,0
2018-04-19T02:48:05.455Z,0
2018-04-19T02:49:07.272Z,0
2018-04-19T02:50:09.073Z,0
2018-04-19T02:51:10.777Z,0
2018-04-19T02:52:12.508Z,0
2018-04-19T02:53:14.282Z,0
2018-04-19T02:54:16.016Z,0
2018-04-19T02:55:17.987Z,0
2018-04-19T02:56:19.625Z,0
2018-04-19T02:57:21.429Z,0
2018-04-19T02:58:23.129Z,0
2018-04-19T02:59:24.900Z,0
2018-04-19T03:00:26.856Z,0
2018-04-19T03:01:28.662Z,0
2018-04-19T03:02:30.461Z,0
2018-04-19T03:03:32.434Z,0
2018-04-19T03:04:34.120Z,0
2018-04-19T03:05:35.819Z,0
2018-04-19T03:06:37.490Z,0
2018-04-19T03:07:39.222Z,0
2018-04-19T03:08:40.948Z,0
2018-04-19T03:09:42.604Z,0
2018-04-19T03:10:44.427Z,0
2018-04-19T03:11:46.284Z,0
2018-04-19T03:12:47.920Z,0
2018-04-19T03:13:49.757Z,0
2018-04-19T03:14:51.548Z,0
2018-04-19T03:15:53.265Z,0
2018-04-19T03:16:55.010Z,0
2018-04-19T03:17:56.895Z,0
2018-04-19T03:18:58.601Z,0
2018-04-19T03:20:00.552Z,0
2018-04-19T03:21:02.228Z,0
2018-04-19T03:22:04.167Z,0
2018-04-19T03:23:05.942Z,0
2018-04-19T03:24:07.632Z,0
2018-04-19T03:25:09.396Z,0
2018-04-19T03:26:11.255Z,0
2018-04-19T03:27:13.181Z,0
2018-04-19T03:28:14.813Z,0
2018-04-19T03:29:16.945Z,0
2018-04-19T03:30:18.621Z,0
2018-04-19T03:31:20.567Z,0
2018-04-19T03:32:22.615Z,0
2018-04-19T03:33:24.275Z,0
2018-04-19T03:34:25.964Z,0
2018-04-19T03:35:27.732Z,0
2018-04-19T03:36:29.406Z,0
2018-04-19T03:37:30.986Z,0
2018-04-19T03:38:33.165Z,0
2018-04-19T03:39:35.120Z,0
2018-04-19T03:40:36.767Z,0
2018-04-19T03:41:38.585Z,0
2018-04-19T03:42:40.323Z,0
2018-04-19T03:43:41.960Z,0
2018-04-19T03:44:43.639Z,0
2018-04-19T03:45:45.423Z,0
2018-04-19T03:46:47.199Z,0
2018-04-19T03:47:48.837Z,0
2018-04-19T03:48:50.743Z,0
2018-04-19T03:49:52.763Z,0
2018-04-19T03:50:54.656Z,0
2018-04-19T03:51:56.750Z,0
2018-04-19T03:52:58.307Z,0
2018-04-19T03:54:00.367Z,0
2018-04-19T03:55:02.056Z,0
2018-04-19T03:56:03.992Z,0
2018-04-19T03:57:05.695Z,0
2018-04-19T03:58:07.463Z,0
2018-04-19T03:59:09.196Z,0
2018-04-19T04:00:10.840Z,0
2018-04-19T04:01:12.612Z,0
2018-04-19T04:02:15.099Z,0
2018-04-19T04:03:16.902Z,0
2018-04-19T04:04:18.781Z,0
2018-04-19T04:05:20.501Z,0
2018-04-19T04:06:22.160Z,0
2018-04-19T04:07:24.035Z,0
2018-04-19T04:08:25.848Z,0
2018-04-19T04:09:27.516Z,0
2018-04-19T04:10:29.232Z,0
2018-04-19T04:11:31.113Z,0
2018-04-19T04:12:32.938Z,0
2018-04-19T04:13:34.697Z,0
2018-04-19T04:14:36.333Z,0
2018-04-19T04:15:37.986Z,0
2018-04-19T04:16:39.723Z,0
2018-04-19T04:17:41.399Z,5
2018-04-19T04:18:43.124Z,5
2018-04-19T04:19:44.875Z,5
2018-04-19T04:20:46.579Z,5
2018-04-19T04:21:48.622Z,5
2018-04-19T04:22:50.464Z,5
2018-04-19T04:23:52.839Z,5
2018-04-19T04:24:54.435Z,10
2018-04-19T04:25:56.201Z,10
2018-04-19T04:26:57.758Z,10
2018-04-19T04:27:59.628Z,10
2018-04-19T04:29:01.323Z,10
2018-04-19T04:30:03.051Z,15
2018-04-19T04:31:04.784Z,15
2018-04-19T04:32:06.482Z,15
2018-04-19T04:33:08.480Z,15
2018-04-19T04:34:10.312Z,20
2018-04-19T04:35:12.057Z,20
2018-04-19T04:36:13.892Z,20
2018-04-19T04:37:15.619Z,25
2018-04-19T04:38:17.285Z,25
2018-04-19T04:39:19.035Z,25
2018-04-19T04:40:20.773Z,30
2018-04-19T04:41:22.518Z,30
2018-04-19T04:42:24.319Z,35
2018-04-19T04:43:26.310Z,35
2018-04-19T04:44:28.157Z,35
2018-04-19T04:45:30.195Z,40
2018-04-19T04:46:32.035Z,40
2018-04-19T04:47:33.650Z,40
2018-04-19T04:48:35.310Z,45
2018-04-19T04:49:37.073Z,45
2018-04-19T04:50:38.879Z,50
2018-04-19T04:51:40.830Z,50
2018-04-19T04:52:42.492Z,55
2018-04-19T04:53:44.343Z,55
2018-04-19T04:54:46.001Z,60
2018-04-19T04:55:47.653Z,60
2018-04-19T04:56:49.409Z,65
2018-04-19T04:57:51.142Z,70
2018-04-19T04:58:53.063Z,75
2018-04-19T04:59:54.776Z,70
2018-04-19T05:00:56.940Z,75
2018-04-19T05:01:58.724Z,80
2018-04-19T05:03:00.426Z,80
2018-04-19T05:04:02.094Z,85
2018-04-19T05:05:03.730Z,90
2018-04-19T05:06:05.393Z,90
2018-04-19T05:07:07.167Z,95
2018-04-19T05:08:08.934Z,100
2018-04-19T05:09:10.737Z,100
2018-04-19T05:10:12.552Z,100
2018-04-19T05:11:14.157Z,105
2018-04-19T05:12:15.986Z,105
2018-04-19T05:13:17.632Z,110
2018-04-19T05:14:19.576Z,115
2018-04-19T05:15:21.201Z,120
2018-04-19T05:16:22.822Z,125
2018-04-19T05:17:24.467Z,130
2018-04-19T05:18:26.522Z,130
2018-04-19T05:19:28.475Z,135
2018-04-19T05:20:30.164Z,140
2018-04-19T05:21:31.989Z,145
2018-04-19T05:22:33.639Z,145
2018-04-19T05:23:35.395Z,145
2018-04-19T05:24:37.183Z,150
2018-04-19T05:25:39.089Z,155
2018-04-19T05:26:40.787Z,155
2018-04-19T05:27:42.706Z,160
2018-04-19T05:28:44.565Z,165
2018-04-19T05:29:46.326Z,165
2018-04-19T05:30:48.176Z,170
2018-04-19T05:31:49.902Z,175
2018-04-19T05:32:51.670Z,180
2018-04-19T05:33:53.506Z,180
2018-04-19T05:34:55.175Z,185
2018-04-19T05:35:56.863Z,190
2018-04-19T05:36:58.611Z,195
2018-04-19T05:38:00.435Z,195
2018-04-19T05:39:02.137Z,195
2018-04-19T05:40:03.794Z,200
2018-04-19T05:41:05.479Z,205
2018-04-19T05:42:07.237Z,205
2018-04-19T05:43:09.025Z,205
2018-04-19T05:44:10.739Z,205
2018-04-19T05:45:12.565Z,210
2018-04-19T05:46:14.361Z,215
2018-04-19T05:47:16.152Z,220
2018-04-19T05:48:17.871Z,225
2018-04-19T05:49:19.574Z,225
2018-04-19T05:50:21.197Z,230
2018-04-19T05:51:23.212Z,235
2018-04-19T05:52:24.992Z,235
2018-04-19T05:53:26.662Z,240
2018-04-19T05:54:28.410Z,250
2018-04-19T05:55:30.134Z,245
2018-04-19T05:56:31.920Z,250
2018-04-19T05:57:33.684Z,255
2018-04-19T05:58:35.381Z,260
2018-04-19T05:59:37.133Z,260
2018-04-19T06:00:38.808Z,265
2018-04-19T06:01:40.593Z,265
2018-04-19T06:02:42.396Z,270
2018-04-19T06:03:44.132Z,270
2018-04-19T06:04:45.903Z,275
2018-04-19T06:05:47.673Z,285
2018-04-19T06:06:49.442Z,285
2018-04-19T06:07:51.199Z,290
2018-04-19T06:08:52.946Z,290
2018-04-19T06:09:54.700Z,295
2018-04-19T06:10:56.308Z,300
2018-04-19T06:11:58.075Z,305
2018-04-19T06:12:59.807Z,310
2018-04-19T06:14:01.439Z,315
2018-04-19T06:15:03.252Z,320
2018-04-19T06:16:04.959Z,320
2018-04-19T06:17:06.674Z,320
2018-04-19T06:18:08.399Z,325
2018-04-19T06:19:10.168Z,325
2018-04-19T06:20:11.984Z,330
2018-04-19T06:21:13.698Z,335
2018-04-19T06:22:15.359Z,340
2018-04-19T06:23:17.140Z,340
2018-04-19T06:24:18.785Z,345
2018-04-19T06:25:20.469Z,350
2018-04-19T06:26:22.254Z,355
2018-04-19T06:27:24.023Z,355
2018-04-19T06:28:25.709Z,360
2018-04-19T06:29:27.327Z,365
2018-04-19T06:30:29.087Z,365
2018-04-19T06:31:30.819Z,370
2018-04-19T06:32:32.659Z,375
2018-04-19T06:33:34.307Z,375
2018-04-19T06:34:36.060Z,385
2018-04-19T06:35:37.765Z,385
2018-04-19T06:36:39.466Z,385
2018-04-19T06:37:41.264Z,390
2018-04-19T06:38:42.953Z,390
2018-04-19T06:39:44.590Z,390
2018-04-19T06:40:46.287Z,395
2018-04-19T06:41:47.998Z,400
2018-04-19T06:42:49.590Z,400
2018-04-19T06:43:51.271Z,405
2018-04-19T06:44:53.032Z,410
2018-04-19T06:45:54.764Z,410
2018-04-19T06:46:56.529Z,415
2018-04-19T06:47:58.181Z,420
2018-04-19T06:48:59.969Z,425
2018-04-19T06:50:01.716Z,425
2018-04-19T06:51:03.473Z,430
2018-04-19T06:52:05.196Z,435
2018-04-19T06:53:06.821Z,440
2018-04-19T06:54:08.531Z,445
2018-04-19T06:55:10.207Z,450
2018-04-19T06:56:11.997Z,450
2018-04-19T06:57:13.721Z,450
2018-04-19T06:58:15.359Z,455
2018-04-19T06:59:17.101Z,460
2018-04-19T07:00:18.756Z,465
2018-04-19T07:01:20.487Z,465
2018-04-19T07:02:22.165Z,465
2018-04-19T07:03:23.834Z,470
2018-04-19T07:04:25.521Z,475
2018-04-19T07:05:27.045Z,475
2018-04-19T07:06:28.774Z,480
2018-04-19T07:07:30.604Z,485
2018-04-19T07:08:32.241Z,490
2018-04-19T07:09:34.043Z,490
2018-04-19T07:10:35.729Z,495
2018-04-19T07:11:37.375Z,495
2018-04-19T07:12:39.106Z,505
2018-04-19T07:13:40.885Z,505
2018-04-19T07:14:42.720Z,510
2018-04-19T07:15:44.452Z,510
2018-04-19T07:16:46.148Z,515
2018-04-19T07:17:47.818Z,520
2018-04-19T07:18:49.599Z,525
2018-04-19T07:19:51.361Z,520
2018-04-19T07:20:53.050Z,525
2018-04-19T07:21:54.647Z,525
2018-04-19T07:22:56.171Z,530
2018-04-19T07:23:57.794Z,530
2018-04-19T07:24:59.629Z,530
2018-04-19T07:26:01.244Z,535
2018-04-19T07:27:02.980Z,535
2018-04-19T07:28:04.605Z,535
2018-04-19T07:29:06.229Z,540
2018-04-19T07:30:07.948Z,540
2018-04-19T07:31:09.701Z,545
2018-04-19T07:32:11.457Z,540
2018-04-19T07:33:13.000Z,545
2018-04-19T07:34:14.646Z,550
2018-04-19T07:35:16.452Z,550
2018-04-19T07:36:18.275Z,560
2018-04-19T07:37:19.984Z,560
2018-04-19T07:38:21.702Z,560
2018-04-19T07:39:23.408Z,565
2018-04-19T07:40:25.063Z,565
2018-04-19T07:41:26.885Z,565
2018-04-19T07:42:28.636Z,570
2018-04-19T07:43:30.143Z,570
2018-04-19T07:44:31.953Z,570
2018-04-19T07:45:33.702Z,575
2018-04-19T07:46:35.450Z,575
2018-04-19T07:47:37.214Z,575
2018-04-19T07:48:38.721Z,575
2018-04-19T07:49:40.446Z,570
2018-04-19T07:50:42.161Z,570
2018-04-19T07:51:43.806Z,570
2018-04-19T07:52:45.468Z,575
2018-04-19T07:53:46.975Z,575
2018-04-19T07:54:48.642Z,585
2018-04-19T07:55:50.366Z,580
2018-04-19T07:56:52.175Z,580
2018-04-19T07:57:53.972Z,580
2018-04-19T07:58:55.666Z,585
2018-04-19T07:59:57.527Z,590
2018-04-19T08:00:59.299Z,585
2018-04-19T08:02:00.959Z,595
2018-04-19T08:03:02.685Z,590
2018-04-19T08:04:04.331Z,595
2018-04-19T08:05:06.171Z,590
2018-04-19T08:06:07.968Z,595
2018-04-19T08:07:09.784Z,605
2018-04-19T08:08:11.527Z,610
2018-04-19T08:09:13.786Z,615
2018-04-19T08:10:15.549Z,620
2018-04-19T08:11:17.470Z,625
2018-04-19T08:12:19.192Z,630
2018-04-19T08:13:20.961Z,630
2018-04-19T08:14:22.475Z,635
2018-04-19T08:15:24.277Z,640
2018-04-19T08:16:25.861Z,645
2018-04-19T08:17:27.787Z,645
2018-04-19T08:18:29.557Z,645
2018-04-19T08:19:31.373Z,645
2018-04-19T08:20:33.139Z,650
2018-04-19T08:21:34.750Z,650
2018-04-19T08:22:36.506Z,655
2018-04-19T08:23:38.354Z,655
2018-04-19T08:24:40.127Z,655
2018-04-19T08:25:41.831Z,660
2018-04-19T08:26:43.309Z,665
2018-04-19T08:27:45.129Z,675
2018-04-19T08:28:46.625Z,680
2018-04-19T08:29:48.360Z,695
2018-04-19T08:30:50.094Z,705
2018-04-19T08:31:51.973Z,715
2018-04-19T08:32:53.682Z,730
2018-04-19T08:33:55.399Z,750
2018-04-19T08:34:57.034Z,780
2018-04-19T08:35:58.837Z,815
2018-04-19T08:37:00.615Z,870
2018-04-19T08:38:02.559Z,940
2018-04-19T08:39:04.091Z,1020
2018-04-19T08:40:05.597Z,1120
2018-04-19T08:41:07.178Z,1215
2018-04-19T08:42:08.947Z,1295
2018-04-19T08:43:10.617Z,1415
2018-04-19T08:44:12.426Z,1530
2018-04-19T08:45:14.113Z,1555
2018-04-19T08:46:15.775Z,1450
2018-04-19T08:47:17.579Z,1240
2018-04-19T08:48:19.377Z,975
2018-04-19T08:49:21.021Z,710
2018-04-19T08:50:22.722Z,600
2018-04-19T08:51:24.263Z,595
2018-04-19T08:52:25.847Z,600
2018-04-19T08:53:27.523Z,600
2018-04-19T08:54:29.177Z,605
2018-04-19T08:55:30.785Z,605
2018-04-19T08:56:32.548Z,615
2018-04-19T08:57:34.265Z,605
2018-04-19T08:58:35.756Z,610
2018-04-19T08:59:37.488Z,615
2018-04-19T09:00:39.258Z,620
2018-04-19T09:01:40.762Z,615
2018-04-19T09:02:42.259Z,620
2018-04-19T09:03:43.972Z,620
2018-04-19T09:04:45.763Z,620
2018-04-19T09:05:47.428Z,625
2018-04-19T09:06:49.123Z,625
2018-04-19T09:07:50.689Z,630
2018-04-19T09:08:52.473Z,630
2018-04-19T09:09:54.162Z,635
2018-04-19T09:10:55.962Z,635
2018-04-19T09:11:57.563Z,640
2018-04-19T09:12:59.376Z,640
2018-04-19T09:14:01.077Z,645
2018-04-19T09:15:02.894Z,645
2018-04-19T09:16:04.571Z,650
2018-04-19T09:17:06.396Z,655
2018-04-19T09:18:08.239Z,660
2018-04-19T09:19:09.933Z,665
2018-04-19T09:20:11.592Z,665
2018-04-19T09:21:13.145Z,670
2018-04-19T09:22:14.903Z,675
2018-04-19T09:23:16.619Z,675
2018-04-19T09:24:18.361Z,680
2018-04-19T09:25:20.103Z,685
2018-04-19T09:26:21.840Z,690
2018-04-19T09:27:23.600Z,700
2018-04-19T09:28:25.324Z,710
2018-04-19T09:29:27.078Z,720
2018-04-19T09:30:28.865Z,730
2018-04-19T09:31:30.583Z,735
2018-04-19T09:32:32.391Z,745
2018-04-19T09:33:34.112Z,760
2018-04-19T09:34:35.805Z,780
2018-04-19T09:35:37.536Z,820
2018-04-19T09:36:39.221Z,855
2018-04-19T09:37:40.932Z,900
2018-04-19T09:38:42.439Z,930
2018-04-19T09:39:44.217Z,960
2018-04-19T09:40:45.875Z,985
2018-04-19T09:41:47.680Z,1005
2018-04-19T09:42:49.548Z,1010
2018-04-19T09:43:51.341Z,1015
2018-04-19T09:44:53.042Z,1025
2018-04-19T09:45:54.723Z,1030
2018-04-19T09:46:56.423Z,1035
2018-04-19T09:47:58.140Z,1060
2018-04-19T09:48:59.855Z,1065
2018-04-19T09:50:01.512Z,1080
2018-04-19T09:51:03.310Z,1085
2018-04-19T09:52:04.860Z,1085
2018-04-19T09:53:06.379Z,1100
2018-04-19T09:54:08.158Z,1115
2018-04-19T09:55:09.811Z,1125
2018-04-19T09:56:11.464Z,1160
2018-04-19T09:57:13.091Z,1210
2018-04-19T09:58:14.809Z,1245
2018-04-19T09:59:16.553Z,1280
2018-04-19T10:00:18.238Z,1310
2018-04-19T10:01:19.698Z,1330
2018-04-19T10:02:21.925Z,1345
2018-04-19T10:03:23.372Z,1395
2018-04-19T10:04:25.141Z,1410
2018-04-19T10:05:26.901Z,1425
2018-04-19T10:06:28.582Z,1465
2018-04-19T10:07:30.108Z,1565
2018-04-19T10:08:31.587Z,1605
2018-04-19T10:09:33.157Z,1715
2018-04-19T10:10:34.842Z,1935
2018-04-19T10:11:36.497Z,2415
2018-04-19T10:12:38.500Z,3480
2018-04-19T10:13:40.021Z,4975
2018-04-19T10:14:41.601Z,6055
2018-04-19T10:15:43.132Z,6840
2018-04-19T10:16:44.613Z,7115
2018-04-19T10:17:46.266Z,6990
2018-04-19T10:18:47.987Z,6180
2018-04-19T10:19:49.666Z,5870
2018-04-19T10:20:51.420Z,5360
2018-04-19T10:21:53.079Z,4875
2018-04-19T10:22:54.825Z,4520
2018-04-19T10:23:56.630Z,4425
2018-04-19T10:24:58.284Z,4375
2018-04-19T10:26:00.057Z,4340
2018-04-19T10:27:01.911Z,4275
2018-04-19T10:28:03.552Z,4300
2018-04-19T10:29:05.308Z,4190
2018-04-19T10:30:06.987Z,4140
2018-04-19T10:31:08.640Z,4170
2018-04-19T10:32:10.320Z,4185
2018-04-19T10:33:12.024Z,4015
2018-04-19T10:34:13.692Z,3960
2018-04-19T10:35:15.648Z,4170
2018-04-19T10:36:17.383Z,4265
2018-04-19T10:37:19.192Z,4205
2018-04-19T10:38:20.877Z,4180
2018-04-19T10:39:22.372Z,4140
2018-04-19T10:40:24.113Z,4105
2018-04-19T10:41:25.864Z,4105
2018-04-19T10:42:27.507Z,4170
2018-04-19T10:43:29.222Z,4130
2018-04-19T10:44:30.883Z,4155
2018-04-19T10:45:32.732Z,4205
2018-04-19T10:46:34.396Z,4135
2018-04-19T10:47:36.209Z,4085
2018-04-19T10:48:37.975Z,3995
2018-04-19T10:49:39.701Z,3920
2018-04-19T10:50:41.497Z,4015
2018-04-19T10:51:43.109Z,4010
2018-04-19T10:52:44.742Z,3985
2018-04-19T10:53:46.472Z,3865
2018-04-19T10:54:48.342Z,3995
2018-04-19T10:55:50.015Z,4075
2018-04-19T10:56:51.858Z,4200
2018-04-19T10:57:53.548Z,4250
2018-04-19T10:58:55.257Z,4190
2018-04-19T10:59:56.994Z,4295
2018-04-19T11:00:58.717Z,4455
2018-04-19T11:02:00.279Z,4575
2018-04-19T11:03:02.013Z,4625
2018-04-19T11:04:03.715Z,4670
2018-04-19T11:05:05.159Z,4600
2018-04-19T11:06:06.898Z,4350
2018-04-19T11:07:08.591Z,4350
2018-04-19T11:08:10.351Z,4320
2018-04-19T11:09:12.017Z,4245
2018-04-19T11:10:13.766Z,4220
2018-04-19T11:11:15.538Z,4275
2018-04-19T11:12:17.267Z,4255
2018-04-19T11:13:18.917Z,4165
2018-04-19T11:14:20.601Z,4275
2018-04-19T11:15:22.264Z,4355
2018-04-19T11:16:24.183Z,4340
2018-04-19T11:17:25.794Z,4285
2018-04-19T11:18:27.605Z,4320
2018-04-19T11:19:29.360Z,4295
2018-04-19T11:20:31.016Z,4260
2018-04-19T11:21:32.639Z,4155
2018-04-19T11:22:34.273Z,3040
2018-04-19T11:23:35.932Z,3695
2018-04-19T11:24:37.673Z,3600
2018-04-19T11:25:39.640Z,3820
2018-04-19T11:26:41.174Z,4035
2018-04-19T11:27:42.661Z,4205
2018-04-19T11:28:44.419Z,4195
2018-04-19T11:29:46.121Z,4125
2018-04-19T11:30:47.795Z,4155
2018-04-19T11:31:49.599Z,4100
2018-04-19T11:32:51.457Z,4200
2018-04-19T11:33:53.550Z,4220
2018-04-19T11:34:55.260Z,4230
2018-04-19T11:35:56.736Z,4185
2018-04-19T11:36:58.335Z,4105
2018-04-19T11:37:59.989Z,4070
2018-04-19T11:39:01.696Z,4160
2018-04-19T11:40:03.393Z,4180
2018-04-19T11:41:05.068Z,4205
2018-04-19T11:42:06.924Z,4155
2018-04-19T11:43:08.660Z,4140
2018-04-19T11:44:10.161Z,4180
2018-04-19T11:45:12.048Z,4155
2018-04-19T11:46:13.791Z,4115
2018-04-19T11:47:15.448Z,4110
2018-04-19T11:48:17.084Z,4055
2018-04-19T11:49:18.615Z,4035
2018-04-19T11:50:20.800Z,4140
2018-04-19T11:51:22.674Z,4060
2018-04-19T11:52:24.817Z,4070
2018-04-19T11:53:26.548Z,4135
2018-04-19T11:54:28.330Z,4115
2018-04-19T11:55:30.242Z,4070
2018-04-19T11:56:31.984Z,4035
2018-04-19T11:57:33.715Z,4035
2018-04-19T11:58:35.562Z,4000
2018-04-19T11:59:37.237Z,3840
2018-04-19T12:00:39.111Z,3895
2018-04-19T12:01:40.786Z,3865
2018-04-19T12:02:42.324Z,3965
2018-04-19T12:03:44.126Z,4015
2018-04-19T12:04:45.875Z,3985
2018-04-19T12:05:47.645Z,3925
2018-04-19T12:06:49.337Z,3960
2018-04-19T12:07:51.008Z,4100
2018-04-19T12:08:52.656Z,4055
2018-04-19T12:09:54.393Z,4060
2018-04-19T12:10:56.156Z,4025
2018-04-19T12:11:57.925Z,3965
2018-04-19T12:12:59.732Z,4020
2018-04-19T12:14:01.258Z,4050
2018-04-19T12:15:03.085Z,3725
2018-04-19T12:16:04.718Z,3320
2018-04-19T12:17:06.466Z,3985
2018-04-19T12:18:08.310Z,4030
2018-04-19T12:19:10.034Z,3965
2018-04-19T12:20:11.845Z,4000
2018-04-19T12:21:14.615Z,4005
2018-04-19T12:22:16.324Z,3935
2018-04-19T12:23:18.077Z,4010
2018-04-19T12:24:19.897Z,4070
2018-04-19T12:25:21.497Z,4050
2018-04-19T12:26:23.077Z,3965
2018-04-19T12:27:25.067Z,3910
2018-04-19T12:28:26.782Z,3925
2018-04-19T12:29:28.463Z,3935
2018-04-19T12:30:30.642Z,3965
2018-04-19T12:31:32.272Z,3980
2018-04-19T12:32:34.026Z,3935
2018-04-19T12:33:35.802Z,3895
2018-04-19T12:34:37.625Z,3915
2018-04-19T12:35:39.295Z,3850
2018-04-19T12:36:41.026Z,3760
2018-04-19T12:37:42.668Z,3785
2018-04-19T12:38:44.423Z,3885
2018-04-19T12:39:46.175Z,3885
2018-04-19T12:40:47.841Z,3890
2018-04-19T12:41:49.500Z,3905
2018-04-19T12:42:51.338Z,3870
2018-04-19T12:43:53.148Z,3795
2018-04-19T12:44:54.881Z,3795
2018-04-19T12:45:56.700Z,3835
2018-04-19T12:46:58.543Z,3205
2018-04-19T12:48:00.282Z,3710
2018-04-19T12:49:01.994Z,3730
2018-04-19T12:50:03.739Z,3765
2018-04-19T12:51:05.519Z,3710
2018-04-19T12:52:07.322Z,3630
2018-04-19T12:53:08.981Z,3660
2018-04-19T12:54:10.727Z,3615
2018-04-19T12:55:12.631Z,3610
2018-04-19T12:56:14.411Z,3630
2018-04-19T12:57:16.109Z,3680
2018-04-19T12:58:17.919Z,3640
2018-04-19T12:59:19.646Z,3625
2018-04-19T13:00:21.472Z,3680
2018-04-19T13:01:23.182Z,3655
2018-04-19T13:02:25.079Z,3595
2018-04-19T13:03:26.787Z,3680
2018-04-19T13:04:28.586Z,3540
2018-04-19T13:05:30.295Z,3370
2018-04-19T13:06:31.997Z,3405
2018-04-19T13:07:33.711Z,3570
2018-04-19T13:08:35.524Z,3545
2018-04-19T13:09:37.284Z,3520
2018-04-19T13:10:39.010Z,3555
2018-04-19T13:11:40.707Z,3540
2018-04-19T13:12:42.597Z,3480
2018-04-19T13:13:44.314Z,3460
2018-04-19T13:14:45.885Z,3445
2018-04-19T13:15:47.388Z,3425
2018-04-19T13:16:48.959Z,3490
2018-04-19T13:17:50.751Z,3510
2018-04-19T13:18:52.438Z,3485
2018-04-19T13:19:53.926Z,3455
2018-04-19T13:20:55.390Z,3410
2018-04-19T13:21:57.226Z,3440
2018-04-19T13:22:59.033Z,3475
2018-04-19T13:24:00.743Z,3385
2018-04-19T13:25:02.325Z,3410
2018-04-19T13:26:03.752Z,3425
2018-04-19T13:27:05.209Z,3385
2018-04-19T13:28:06.836Z,3395
2018-04-19T13:29:08.632Z,3415
2018-04-19T13:30:10.469Z,3460
2018-04-19T13:31:12.202Z,3430
2018-04-19T13:32:13.997Z,3445
2018-04-19T13:33:15.705Z,3470
2018-04-19T13:34:17.407Z,3475
2018-04-19T13:35:19.196Z,3455
2018-04-19T13:36:20.990Z,3500
2018-04-19T13:37:22.688Z,3490
2018-04-19T13:38:24.378Z,3495
2018-04-19T13:39:26.087Z,3470
2018-04-19T13:40:27.575Z,3430
2018-04-19T13:41:29.412Z,3475
2018-04-19T13:42:31.137Z,3495
2018-04-19T13:43:32.882Z,3440
2018-04-19T13:44:34.591Z,3515
2018-04-19T13:45:36.341Z,3460
2018-04-19T13:46:38.061Z,3320
2018-04-19T13:47:39.649Z,3160
2018-04-19T13:48:41.527Z,3210
2018-04-19T13:49:43.282Z,3200
2018-04-19T13:50:45.210Z,3180
2018-04-19T13:51:46.954Z,3225
2018-04-19T13:52:48.745Z,3285
2018-04-19T13:53:50.489Z,3395
2018-04-19T13:54:52.277Z,3510
2018-04-19T13:55:54.035Z,3510
2018-04-19T13:56:55.922Z,3435
2018-04-19T13:57:57.663Z,3340
2018-04-19T13:58:59.093Z,3420
2018-04-19T14:00:00.494Z,3305
2018-04-19T14:01:01.952Z,3315
2018-04-19T14:02:03.623Z,3425
2018-04-19T14:03:05.287Z,3430
2018-04-19T14:04:07.066Z,3375
2018-04-19T14:05:08.758Z,3410
2018-04-19T14:06:10.234Z,3370
2018-04-19T14:07:11.676Z,3355
2018-04-19T14:08:13.187Z,3345
2018-04-19T14:09:14.599Z,3350
2018-04-19T14:10:16.363Z,3370
2018-04-19T14:11:18.119Z,3430
2018-04-19T14:12:19.535Z,3370
2018-04-19T14:13:20.967Z,3050
2018-04-19T14:14:22.447Z,3215
2018-04-19T14:15:23.880Z,3380
2018-04-19T14:16:25.298Z,3300
2018-04-19T14:17:26.752Z,3225
2018-04-19T14:18:28.190Z,3295
2018-04-19T14:19:29.673Z,3315